LICA/SUF METAR and TAF weather

Enter ICAO airport designator
Station Type Date Time Source
LICA METAR 2019/10/23 07:50 UTC NOAA

LICA 230750Z 06009KT CAVOK 22/17 Q1020


Station Type Date Time Source
LICA Decoded METAR 2019/10/23 07:50 UTC NOAA

Lamezia Terme, Italy (LICA) 38-54N 016-15E
Oct 23, 2019 - 03:50 AM EDT / 2019.10.23 0750 UTC
Wind: from the ENE (060 degrees) at 10 MPH (9 KT):0
Visibility: greater than 7 mile(s):0
Temperature: 71 F (22 C)
Dew Point: 62 F (17 C)
Relative Humidity: 73%
Pressure (altimeter): 30.12 in. Hg (1020 hPa)
ob: LICA 230750Z 06009KT CAVOK 22/17 Q1020
cycle: 8

Station Type Date Time Source
LICA TAF 2019/10/23 06:21 UTC NOAA

TAF LICA 230500Z 2306/2406 06010KT CAVOK

Example: see airport list